Time;durP1;ratioP1;P1;durP2;ratioP2;P2;SDS_P1;SDS_P2;PMS_P1;PMS_P2;Temp;Humidity;BMP_temperature;BMP_pressure;BME280_temperature;BME280_humidity;BME280_pressure;Samples;Min_cycle;Max_cycle;Signal;HPM_P1;HPM_P2
2022/11/09 00:01:43;;;;;;;3.33;1.10;;;7.50;99.90;;;;;;4958429;28;20153;-65
2022/11/09 00:04:10;;;;;;;1.30;1.10;;;7.50;99.90;;;;;;4959258;28;20073;-64
2022/11/09 00:06:37;;;;;;;6.60;1.20;;;7.40;99.90;;;;;;4961442;28;20429;-64
2022/11/09 00:09:05;;;;;;;1.30;1.20;;;7.40;99.90;;;;;;4960096;28;20066;-65
2022/11/09 00:11:34;;;;;;;2.15;1.13;;;7.40;99.90;;;;;;4963361;28;20051;-65
2022/11/09 00:14:01;;;;;;;1.75;1.15;;;7.40;99.90;;;;;;4963342;28;20046;-63
2022/11/09 00:16:27;;;;;;;1.77;0.90;;;7.50;99.90;;;;;;4962817;28;20069;-63
2022/11/09 00:18:54;;;;;;;;;;;7.50;99.90;;;;;;4964535;28;20129;-63
2022/11/09 00:21:23;;;;;;;1.67;1.10;;;7.50;99.90;;;;;;4965989;28;19926;-64
2022/11/09 00:23:50;;;;;;;2.88;1.00;;;7.50;99.90;;;;;;4962074;28;20048;-64
2022/11/09 00:26:18;;;;;;;1.75;0.85;;;7.50;99.90;;;;;;4962585;28;20046;-64
2022/11/09 00:28:45;;;;;;;2.60;1.00;;;7.50;99.90;;;;;;4963932;28;20141;-64
2022/11/09 00:31:15;;;;;;;2.50;0.88;;;7.50;99.90;;;;;;4962568;28;20141;-63
2022/11/09 00:33:50;;;;;;;2.58;1.00;;;7.40;99.90;;;;;;4964123;28;20066;-64
2022/11/09 00:36:18;;;;;;;1.50;0.90;;;7.40;99.90;;;;;;4964968;28;20045;-63
2022/11/09 00:38:53;;;;;;;1.10;0.80;;;7.30;99.90;;;;;;4964961;28;20643;-64
2022/11/09 00:41:20;;;;;;;1.73;1.23;;;7.30;99.90;;;;;;4964800;28;20606;-63
2022/11/09 00:43:48;;;;;;;0.77;0.77;;;7.30;99.90;;;;;;4964357;28;20072;-64
2022/11/09 00:46:15;;;;;;;2.95;1.00;;;7.30;99.90;;;;;;4962501;28;20055;-64
2022/11/09 00:48:43;;;;;;;2.13;1.15;;;7.20;99.90;;;;;;4961700;28;20104;-63
2022/11/09 00:51:10;;;;;;;2.42;1.02;;;7.20;99.90;;;;;;4965143;28;20094;-63
2022/11/09 00:53:37;;;;;;;1.80;0.98;;;7.20;99.90;;;;;;4978224;28;20572;-65
2022/11/09 00:56:06;;;;;;;1.15;1.05;;;7.20;99.90;;;;;;4961209;28;20109;-64
2022/11/09 00:58:37;;;;;;;1.67;1.00;;;7.20;99.90;;;;;;4961406;28;20056;-64
2022/11/09 01:01:13;;;;;;;3.10;0.82;;;7.20;99.90;;;;;;4977111;28;20089;-64
2022/11/09 01:03:42;;;;;;;;;;;7.20;99.90;;;;;;4963910;28;20058;-64
2022/11/09 01:06:14;;;;;;;2.35;0.80;;;7.20;99.90;;;;;;4961992;28;19925;-64
2022/11/09 01:08:42;;;;;;;2.40;1.10;;;7.20;99.90;;;;;;4971087;28;20050;-64
2022/11/09 01:11:09;;;;;;;;;;;7.20;99.90;;;;;;4961340;28;20474;-65
2022/11/09 01:13:37;;;;;;;4.72;1.00;;;7.30;99.90;;;;;;4975295;28;19933;-64
2022/11/09 01:16:09;;;;;;;1.00;0.88;;;7.30;99.90;;;;;;4976049;28;20055;-64
2022/11/09 01:18:37;;;;;;;0.85;0.65;;;7.40;99.90;;;;;;4963868;28;20560;-64
2022/11/09 01:21:06;;;;;;;1.55;1.05;;;7.40;99.90;;;;;;4962543;28;20145;-64
2022/11/09 01:23:33;;;;;;;0.95;0.60;;;7.40;99.90;;;;;;4961402;28;20319;-63
2022/11/09 01:26:06;;;;;;;1.05;0.73;;;7.40;99.90;;;;;;4960674;28;20042;-64
2022/11/09 01:28:33;;;;;;;1.23;0.80;;;7.40;99.90;;;;;;4965402;28;20047;-63
2022/11/09 01:31:05;;;;;;;3.45;0.88;;;7.40;99.90;;;;;;4980673;28;20830;-63
2022/11/09 01:33:33;;;;;;;1.40;0.63;;;7.40;99.90;;;;;;4963197;28;20140;-63
2022/11/09 01:36:07;;;;;;;0.90;0.80;;;7.40;99.90;;;;;;4978009;28;20133;-65
2022/11/09 01:38:36;;;;;;;1.08;0.73;;;7.40;99.90;;;;;;4963030;28;20405;-63
2022/11/09 01:41:05;;;;;;;0.93;0.68;;;7.30;99.90;;;;;;4956866;28;20051;-64
2022/11/09 01:43:33;;;;;;;0.80;0.77;;;7.30;99.90;;;;;;4961107;28;20046;-65
2022/11/09 01:46:12;;;;;;;3.67;0.63;;;7.30;99.90;;;;;;4963471;28;20062;-63
2022/11/09 01:48:58;;;;;;;0.77;0.77;;;7.30;99.90;;;;;;4975079;28;20384;-63
2022/11/09 01:51:26;;;;;;;1.17;0.93;;;7.20;99.90;;;;;;4959876;28;20054;-64
2022/11/09 01:54:03;;;;;;;1.00;0.90;;;7.20;99.90;;;;;;4962983;28;20133;-65
2022/11/09 01:56:31;;;;;;;5.30;1.00;;;7.20;99.90;;;;;;4960988;28;20117;-63
2022/11/09 01:59:07;;;;;;;2.35;0.80;;;7.20;99.90;;;;;;4961993;28;20227;-64
2022/11/09 02:01:35;;;;;;;4.78;1.13;;;7.10;99.90;;;;;;4963384;28;20055;-64
2022/11/09 02:04:12;;;;;;;2.15;0.88;;;7.10;99.90;;;;;;4960801;28;20043;-63
2022/11/09 02:06:39;;;;;;;0.93;0.70;;;7.10;99.90;;;;;;4961398;28;20050;-63
2022/11/09 02:09:36;;;;;;;2.63;0.88;;;7.10;99.90;;;;;;4959247;28;20404;-63
2022/11/09 02:12:03;;;;;;;1.10;0.68;;;7.10;99.90;;;;;;4965214;28;20619;-63
2022/11/09 02:14:33;;;;;;;0.75;0.63;;;7.10;99.90;;;;;;4968312;28;20679;-64
2022/11/09 02:17:00;;;;;;;0.63;0.60;;;7.10;99.90;;;;;;4960020;28;20118;-63
2022/11/09 02:19:26;;;;;;;1.25;0.70;;;7.10;99.90;;;;;;4962811;28;20055;-64
2022/11/09 02:21:53;;;;;;;1.83;0.90;;;7.10;99.90;;;;;;4961034;28;20451;-64
2022/11/09 02:24:24;;;;;;;0.93;0.77;;;7.10;99.90;;;;;;4976916;28;20043;-63
2022/11/09 02:26:52;;;;;;;1.33;0.60;;;7.10;99.90;;;;;;4961894;28;20082;-64
2022/11/09 02:29:33;;;;;;;1.15;0.70;;;7.20;99.90;;;;;;4943864;28;20061;-64
2022/11/09 02:32:05;;;;;;;1.17;1.08;;;7.20;99.90;;;;;;4961792;28;20059;-63
2022/11/09 02:34:32;;;;;;;1.38;0.77;;;7.20;99.90;;;;;;4961737;28;20497;-64
2022/11/09 02:37:00;;;;;;;0.85;0.57;;;7.30;99.90;;;;;;4944940;28;20586;-64
2022/11/09 02:39:28;;;;;;;2.33;0.90;;;7.30;99.90;;;;;;4961632;28;20050;-63
2022/11/09 02:42:15;;;;;;;1.10;0.90;;;7.30;99.90;;;;;;4961992;28;20058;-63
2022/11/09 02:44:54;;;;;;;3.28;0.80;;;7.30;99.90;;;;;;4959411;28;20050;-64
2022/11/09 02:47:21;;;;;;;1.38;1.00;;;7.20;99.90;;;;;;4961964;28;20094;-64
2022/11/09 02:49:48;;;;;;;1.20;0.80;;;7.20;99.90;;;;;;4958123;28;20042;-64
2022/11/09 02:52:16;;;;;;;0.57;0.55;;;7.20;99.90;;;;;;4958289;28;20737;-64
2022/11/09 02:54:44;;;;;;;1.67;1.05;;;7.20;99.90;;;;;;4960196;28;20157;-64
2022/11/09 02:57:11;;;;;;;1.60;0.70;;;7.20;99.90;;;;;;4959831;28;20054;-63
2022/11/09 02:59:38;;;;;;;1.80;1.20;;;7.10;99.90;;;;;;4960023;28;20062;-64
2022/11/09 03:02:05;;;;;;;2.17;1.27;;;7.10;99.90;;;;;;4959447;28;20046;-64
2022/11/09 03:04:32;;;;;;;;;;;7.10;99.90;;;;;;4958742;28;20058;-64
2022/11/09 03:07:00;;;;;;;1.38;1.00;;;7.00;99.90;;;;;;4975351;28;19932;-65
2022/11/09 03:09:28;;;;;;;1.38;0.82;;;7.00;99.90;;;;;;4958462;28;20053;-64
2022/11/09 03:11:55;;;;;;;;;;;7.00;99.90;;;;;;4960642;28;20053;-63
2022/11/09 03:14:23;;;;;;;0.80;0.80;;;7.00;99.90;;;;;;4975871;28;20575;-63
2022/11/09 03:16:54;;;;;;;0.88;0.70;;;7.00;99.90;;;;;;4954980;28;20058;-64
2022/11/09 03:19:21;;;;;;;1.65;0.80;;;7.10;99.90;;;;;;4972714;28;20416;-64
2022/11/09 03:21:50;;;;;;;2.00;1.02;;;7.10;99.90;;;;;;4959625;28;20130;-65
2022/11/09 03:24:21;;;;;;;0.70;0.70;;;7.10;99.90;;;;;;4975160;28;20248;-64
2022/11/09 03:26:50;;;;;;;0.98;0.90;;;7.10;99.90;;;;;;4969841;28;20130;-63
2022/11/09 03:29:17;;;;;;;0.90;0.90;;;7.10;99.90;;;;;;4968533;28;20059;-64
2022/11/09 03:31:44;;;;;;;;;;;7.10;99.90;;;;;;4960088;28;20078;-65
2022/11/09 03:34:11;;;;;;;0.82;0.80;;;7.10;99.90;;;;;;4959499;28;19926;-64
2022/11/09 03:36:38;;;;;;;1.65;1.55;;;7.10;99.90;;;;;;4977007;28;20057;-64
2022/11/09 03:39:05;;;;;;;;;;;7.10;99.90;;;;;;4962244;28;20057;-64
2022/11/09 03:41:32;;;;;;;4.63;1.67;;;7.10;99.90;;;;;;4969203;28;19925;-64
2022/11/09 03:43:58;;;;;;;2.60;1.58;;;7.10;99.90;;;;;;4960260;28;20673;-64
2022/11/09 03:46:26;;;;;;;;;;;7.10;99.90;;;;;;4962862;28;20077;-65
2022/11/09 03:48:52;;;;;;;4.07;1.23;;;7.00;99.90;;;;;;4966266;28;19932;-64
2022/11/09 03:51:19;;;;;;;3.35;1.52;;;7.10;99.90;;;;;;4962448;28;20034;-64
2022/11/09 03:53:46;;;;;;;6.38;1.65;;;7.10;99.90;;;;;;4965408;28;20052;-64
2022/11/09 03:56:12;;;;;;;2.72;1.52;;;7.10;99.90;;;;;;4962353;28;20046;-63
2022/11/09 03:58:39;;;;;;;3.72;1.75;;;7.10;99.90;;;;;;4962432;28;20050;-64
2022/11/09 04:01:06;;;;;;;;;;;7.10;99.90;;;;;;4961411;28;20126;-64
2022/11/09 04:03:33;;;;;;;8.57;3.70;;;7.10;99.90;;;;;;4965155;28;19941;-64
2022/11/09 04:05:59;;;;;;;7.93;3.72;;;7.10;99.90;;;;;;4965628;28;20511;-65
2022/11/09 04:08:26;;;;;;;16.40;6.35;;;7.10;99.90;;;;;;4966379;28;20065;-64
2022/11/09 04:10:53;;;;;;;;;;;7.10;99.90;;;;;;4965180;28;20047;-64
2022/11/09 04:13:20;;;;;;;21.42;10.48;;;7.20;99.90;;;;;;4963094;28;20022;-64
2022/11/09 04:15:47;;;;;;;31.52;12.68;;;7.20;99.90;;;;;;4961587;28;20057;-64
2022/11/09 04:18:14;;;;;;;;;;;7.20;99.90;;;;;;4962443;28;20426;-64
2022/11/09 04:20:42;;;;;;;23.55;10.60;;;7.20;99.90;;;;;;4962919;28;19961;-65
2022/11/09 04:23:11;;;;;;;11.43;5.63;;;7.20;99.90;;;;;;4966621;28;20056;-63
2022/11/09 04:25:40;;;;;;;14.75;5.95;;;7.20;99.90;;;;;;4962496;28;20555;-64
2022/11/09 04:28:11;;;;;;;13.95;5.90;;;7.30;99.90;;;;;;4964555;28;20813;-64
2022/11/09 04:30:38;;;;;;;15.93;7.43;;;7.30;99.90;;;;;;4963730;28;20078;-65
2022/11/09 04:33:04;;;;;;;18.52;7.63;;;7.30;99.90;;;;;;4960872;28;20039;-64
2022/11/09 04:35:33;;;;;;;16.92;7.32;;;7.30;99.90;;;;;;4962923;28;20093;-65
2022/11/09 04:38:05;;;;;;;20.40;7.93;;;7.40;99.90;;;;;;4980170;28;20045;-64
2022/11/09 04:40:34;;;;;;;22.90;10.10;;;7.40;99.90;;;;;;4962716;28;20057;-64
2022/11/09 04:43:03;;;;;;;20.65;9.73;;;7.40;99.90;;;;;;4958311;28;20046;-63
2022/11/09 04:45:32;;;;;;;38.60;16.45;;;7.40;99.90;;;;;;4960745;28;20047;-63
2022/11/09 04:48:00;;;;;;;40.08;16.50;;;7.40;99.90;;;;;;4963512;28;20098;-64
2022/11/09 04:50:28;;;;;;;41.70;17.10;;;7.40;99.90;;;;;;4960918;28;20042;-64
2022/11/09 04:53:02;;;;;;;29.05;12.18;;;7.50;99.90;;;;;;4963700;28;20045;-64
2022/11/09 04:55:33;;;;;;;26.65;10.43;;;7.50;99.90;;;;;;4965632;28;20057;-65
2022/11/09 04:58:00;;;;;;;43.17;16.52;;;7.60;99.90;;;;;;4961844;28;20560;-64
2022/11/09 05:00:27;;;;;;;41.85;16.60;;;7.60;99.90;;;;;;4963503;28;20074;-64
2022/11/09 05:02:54;;;;;;;;;;;7.70;99.90;;;;;;4964139;28;20045;-65
2022/11/09 05:05:20;;;;;;;35.53;13.18;;;7.70;99.90;;;;;;4962917;28;20024;-64
2022/11/09 05:07:47;;;;;;;;;;;7.80;99.90;;;;;;4964133;28;20046;-64
2022/11/09 05:10:14;;;;;;;24.98;11.18;;;7.90;99.90;;;;;;4964552;28;19928;-64
2022/11/09 05:12:41;;;;;;;24.48;10.10;;;7.90;99.90;;;;;;4959897;28;20133;-64
2022/11/09 05:15:12;;;;;;;27.50;12.25;;;7.90;99.90;;;;;;4960814;28;20089;-64
2022/11/09 05:17:38;;;;;;;22.27;10.05;;;7.80;99.90;;;;;;4963954;28;20073;-63
2022/11/09 05:20:05;;;;;;;;;;;7.90;99.90;;;;;;4960899;28;20141;-64
2022/11/09 05:25:17;;;;;;;16.45;6.95;;;7.90;99.90;;;;;;4963083;28;20149;-65
2022/11/09 05:27:44;;;;;;;12.80;5.75;;;7.80;99.90;;;;;;4962714;28;20102;-63
2022/11/09 05:30:11;;;;;;;12.13;5.65;;;7.70;99.90;;;;;;4961352;28;20047;-64
2022/11/09 05:32:38;;;;;;;9.63;5.00;;;7.70;99.90;;;;;;4963716;28;20093;-64
2022/11/09 05:35:06;;;;;;;13.30;7.18;;;7.70;99.90;;;;;;4965377;28;21496;-64
2022/11/09 05:37:32;;;;;;;28.35;9.38;;;7.60;99.90;;;;;;4963517;28;20610;-64
2022/11/09 05:39:59;;;;;;;21.73;9.15;;;7.60;99.90;;;;;;4964128;28;20042;-64
2022/11/09 05:42:26;;;;;;;;;;;7.60;99.90;;;;;;4963333;28;20070;-64
2022/11/09 05:44:54;;;;;;;15.57;6.15;;;7.60;99.90;;;;;;4961048;28;19926;-64
2022/11/09 05:47:21;;;;;;;15.02;6.60;;;7.60;99.90;;;;;;4961344;28;20046;-65
2022/11/09 05:49:48;;;;;;;16.05;5.97;;;7.70;99.90;;;;;;4961583;28;20052;-63
2022/11/09 05:52:15;;;;;;;;;;;7.70;99.90;;;;;;4962994;28;20038;-63
2022/11/09 05:54:41;;;;;;;10.30;4.47;;;7.80;99.90;;;;;;4960159;28;19926;-63
2022/11/09 05:57:08;;;;;;;9.70;4.15;;;7.80;99.90;;;;;;4964928;28;20051;-63
2022/11/09 05:59:35;;;;;;;7.85;3.58;;;7.80;99.90;;;;;;4961417;28;20047;-64
2022/11/09 06:02:02;;;;;;;8.18;3.13;;;7.90;99.90;;;;;;4964059;28;20050;-63
2022/11/09 06:04:28;;;;;;;6.60;3.05;;;7.90;99.90;;;;;;4961849;28;20047;-63
2022/11/09 06:06:55;;;;;;;6.13;3.28;;;7.90;99.90;;;;;;4964842;28;20081;-63
2022/11/09 06:09:22;;;;;;;6.53;2.97;;;7.90;99.90;;;;;;4962174;28;20066;-64
2022/11/09 06:11:49;;;;;;;6.57;2.50;;;7.90;99.90;;;;;;4964288;28;20049;-63
2022/11/09 06:14:16;;;;;;;3.90;2.17;;;8.00;99.90;;;;;;4961287;28;20053;-65
2022/11/09 06:16:42;;;;;;;5.05;1.90;;;8.00;99.90;;;;;;4959652;28;20064;-64
2022/11/09 06:19:09;;;;;;;3.88;1.92;;;8.00;99.90;;;;;;4962010;28;20034;-65
2022/11/09 06:21:36;;;;;;;5.75;1.77;;;8.00;99.90;;;;;;4963133;28;20455;-64
2022/11/09 06:24:03;;;;;;;4.45;2.22;;;8.10;99.90;;;;;;4966940;28;20047;-64
2022/11/09 06:26:29;;;;;;;3.30;1.85;;;8.10;99.90;;;;;;4958760;28;20046;-64
2022/11/09 06:28:56;;;;;;;3.13;1.98;;;8.10;99.90;;;;;;4961334;28;20050;-54
2022/11/09 06:31:23;;;;;;;2.60;1.30;;;8.10;99.90;;;;;;4958456;28;20053;-56
2022/11/09 06:33:50;;;;;;;2.25;1.23;;;8.20;99.90;;;;;;4959607;28;20144;-56
2022/11/09 06:36:16;;;;;;;;;;;8.30;99.90;;;;;;4959882;28;20428;-57
2022/11/09 06:38:43;;;;;;;2.42;0.80;;;8.30;99.90;;;;;;4961983;28;19988;-57
2022/11/09 06:41:10;;;;;;;6.30;1.30;;;8.30;99.90;;;;;;4960684;28;20120;-56
2022/11/09 06:43:36;;;;;;;3.72;1.13;;;8.40;99.90;;;;;;4961115;28;20128;-57
2022/11/09 06:46:04;;;;;;;2.67;1.35;;;8.40;99.90;;;;;;4960630;28;20047;-54
2022/11/09 06:48:31;;;;;;;2.47;1.30;;;8.50;99.90;;;;;;4974189;28;20505;-55
2022/11/09 06:51:02;;;;;;;1.60;0.98;;;8.60;99.90;;;;;;4978266;28;20046;-56
2022/11/09 06:53:30;;;;;;;4.20;1.23;;;8.70;99.90;;;;;;4961058;28;20070;-54
2022/11/09 06:55:58;;;;;;;1.42;0.98;;;8.70;99.90;;;;;;4960981;28;20058;-55
2022/11/09 06:58:26;;;;;;;2.33;1.20;;;8.70;99.90;;;;;;4959913;28;20058;-61
2022/11/09 07:00:53;;;;;;;6.95;1.50;;;8.80;99.90;;;;;;4960834;28;20042;-55
2022/11/09 07:03:21;;;;;;;3.40;1.77;;;8.80;99.90;;;;;;4968494;28;20054;-56
2022/11/09 07:05:49;;;;;;;3.42;1.33;;;8.90;99.90;;;;;;4959063;28;20046;-57
2022/11/09 07:08:17;;;;;;;5.65;1.70;;;9.00;99.90;;;;;;4959974;28;20081;-57
2022/11/09 07:10:44;;;;;;;;;;;9.20;99.90;;;;;;4964050;28;20124;-57
2022/11/09 07:13:11;;;;;;;5.63;1.27;;;9.40;99.90;;;;;;4959746;28;20039;-57
2022/11/09 07:15:38;;;;;;;2.25;1.77;;;9.60;99.90;;;;;;4962049;28;20530;-55
2022/11/09 07:18:07;;;;;;;3.28;1.73;;;9.80;99.90;;;;;;4959301;28;20519;-57
2022/11/09 07:20:34;;;;;;;3.13;2.03;;;10.00;99.90;;;;;;4958115;28;20050;-56
2022/11/09 07:23:00;;;;;;;4.55;2.15;;;10.30;99.90;;;;;;4960565;28;20050;-55
2022/11/09 07:25:27;;;;;;;2.97;1.98;;;10.40;99.90;;;;;;4960015;28;20139;-55
2022/11/09 07:27:54;;;;;;;5.18;2.45;;;10.50;99.90;;;;;;4960156;28;20829;-57
2022/11/09 07:30:20;;;;;;;;;;;10.50;99.90;;;;;;4959032;28;20903;-56
2022/11/09 07:32:47;;;;;;;2.63;1.83;;;10.40;99.90;;;;;;4960622;28;19932;-54
2022/11/09 07:35:34;;;;;;;3.67;1.83;;;10.40;99.90;;;;;;4959941;28;20563;-57
2022/11/09 07:38:00;;;;;;;9.45;1.83;;;10.30;99.90;;;;;;4961989;28;20345;-56
2022/11/09 07:40:28;;;;;;;2.65;1.60;;;10.30;99.90;;;;;;4962218;28;20236;-57
2022/11/09 07:43:03;;;;;;;1.98;1.38;;;10.30;99.90;;;;;;4960780;28;20057;-57
2022/11/09 07:45:31;;;;;;;3.90;1.52;;;10.20;99.90;;;;;;4961440;28;20531;-56
2022/11/09 07:48:01;;;;;;;2.83;2.13;;;10.20;99.90;;;;;;4960347;28;20051;-56
2022/11/09 07:50:29;;;;;;;3.05;1.45;;;10.20;99.90;;;;;;4962601;28;20046;-55
2022/11/09 07:52:57;;;;;;;2.67;1.70;;;10.20;99.90;;;;;;4961541;28;20039;-55
2022/11/09 07:55:26;;;;;;;2.97;1.55;;;10.30;99.90;;;;;;4959282;28;20113;-55
2022/11/09 07:58:01;;;;;;;1.98;1.73;;;10.20;99.90;;;;;;4962276;28;20061;-55
2022/11/09 08:00:30;;;;;;;5.25;1.58;;;10.20;99.90;;;;;;4956723;28;20058;-56
2022/11/09 08:02:57;;;;;;;2.72;1.50;;;10.30;99.90;;;;;;4961622;28;20039;-53
2022/11/09 08:05:24;;;;;;;1.65;1.50;;;10.30;99.90;;;;;;4975597;28;20583;-56
2022/11/09 08:07:55;;;;;;;1.73;1.27;;;10.30;99.90;;;;;;4957517;28;20057;-54
2022/11/09 08:10:24;;;;;;;5.30;1.75;;;10.30;99.90;;;;;;4956716;28;20335;-56
2022/11/09 08:12:56;;;;;;;1.88;1.25;;;10.40;99.90;;;;;;4959652;28;20051;-57
2022/11/09 08:15:24;;;;;;;1.65;1.40;;;10.50;99.90;;;;;;4960427;28;20554;-55
2022/11/09 08:17:51;;;;;;;4.25;1.60;;;10.50;99.90;;;;;;4960213;28;20117;-53
2022/11/09 08:20:19;;;;;;;1.30;1.20;;;10.60;99.90;;;;;;4960202;28;20611;-54
2022/11/09 08:22:46;;;;;;;2.40;1.42;;;10.70;99.90;;;;;;4958548;28;20160;-53
2022/11/09 08:25:13;;;;;;;4.28;1.75;;;10.80;99.90;;;;;;4959923;28;20042;-55
2022/11/09 08:27:40;;;;;;;2.70;2.03;;;10.80;99.90;;;;;;4960767;28;20094;-52
2022/11/09 08:30:10;;;;;;;;;;;10.90;99.90;;;;;;4960401;28;20034;-55
2022/11/09 08:32:37;;;;;;;5.40;1.60;;;11.00;99.90;;;;;;4961293;28;20024;-55
2022/11/09 08:35:04;;;;;;;2.58;1.73;;;11.10;99.90;;;;;;4962481;28;20050;-56
2022/11/09 08:37:33;;;;;;;6.45;2.05;;;11.30;99.90;;;;;;4962570;28;20049;-56
2022/11/09 08:40:00;;;;;;;4.13;1.73;;;11.40;99.90;;;;;;4965666;28;20050;-55
2022/11/09 08:42:26;;;;;;;;;;;11.50;99.90;;;;;;4962674;28;20125;-57
2022/11/09 08:44:53;;;;;;;2.75;1.75;;;11.60;99.90;;;;;;4962026;28;20688;-53
2022/11/09 08:47:20;;;;;;;2.28;1.48;;;11.70;99.90;;;;;;4961339;28;20453;-54
2022/11/09 08:49:47;;;;;;;;;;;11.70;99.90;;;;;;4963526;28;20047;-54
2022/11/09 08:52:15;;;;;;;2.40;1.48;;;11.80;99.90;;;;;;4964395;28;19932;-56
2022/11/09 08:54:42;;;;;;;1.95;1.27;;;11.80;99.90;;;;;;4961050;28;20053;-55
2022/11/09 08:57:09;;;;;;;1.85;1.35;;;11.90;99.90;;;;;;4961154;28;20207;-55
2022/11/09 08:59:35;;;;;;;;;;;11.90;99.90;;;;;;4967165;28;20584;-58
2022/11/09 09:02:02;;;;;;;3.25;1.67;;;12.00;99.90;;;;;;4960716;28;20431;-55
2022/11/09 09:04:29;;;;;;;2.35;1.30;;;12.10;99.90;;;;;;4964239;28;20042;-57
2022/11/09 09:06:56;;;;;;;2.30;1.50;;;12.10;99.90;;;;;;4964877;28;20120;-56
2022/11/09 09:09:23;;;;;;;;;;;12.20;99.90;;;;;;4959447;28;20510;-54
2022/11/09 09:11:50;;;;;;;8.50;2.78;;;12.20;99.90;;;;;;4962815;28;19925;-55
2022/11/09 09:14:16;;;;;;;8.57;3.20;;;12.30;99.90;;;;;;4959980;28;20042;-55
2022/11/09 09:16:44;;;;;;;;;;;12.30;99.90;;;;;;4959176;28;20047;-54
2022/11/09 09:19:10;;;;;;;7.60;3.15;;;12.30;99.90;;;;;;4959287;28;19980;-56
2022/11/09 09:21:37;;;;;;;;;;;12.30;99.90;;;;;;4961886;28;20072;-54
2022/11/09 09:24:05;;;;;;;6.22;2.90;;;12.30;99.90;;;;;;4962038;28;20139;-53
2022/11/09 09:26:32;;;;;;;10.68;2.95;;;12.30;99.90;;;;;;4977689;28;20053;-54
2022/11/09 09:28:59;;;;;;;5.32;2.38;;;12.40;99.90;;;;;;4962942;28;20311;-56
2022/11/09 09:31:26;;;;;;;3.92;2.20;;;12.50;99.90;;;;;;4963754;28;20039;-55
2022/11/09 09:33:53;;;;;;;3.22;2.45;;;12.50;99.90;;;;;;4962748;28;20078;-53
2022/11/09 09:36:22;;;;;;;4.88;2.85;;;12.50;99.90;;;;;;4960658;28;20085;-55
2022/11/09 09:38:52;;;;;;;2.30;1.90;;;12.50;99.90;;;;;;4959552;28;20295;-57
2022/11/09 09:41:33;;;;;;;3.60;2.28;;;12.50;99.90;;;;;;4963788;28;20055;-54
2022/11/09 09:44:09;;;;;;;4.40;2.63;;;12.50;99.90;;;;;;4961921;28;20158;-54
2022/11/09 09:46:42;;;;;;;3.45;2.60;;;12.60;99.90;;;;;;4959882;28;20125;-55
2022/11/09 09:49:16;;;;;;;3.58;2.75;;;12.60;99.90;;;;;;4961058;28;20057;-57
2022/11/09 09:51:58;;;;;;;3.08;2.30;;;12.60;99.90;;;;;;4959131;28;20149;-54
2022/11/09 09:54:38;;;;;;;2.55;2.10;;;12.60;99.90;;;;;;4964040;28;20434;-53
2022/11/09 09:57:18;;;;;;;3.63;2.50;;;12.70;99.90;;;;;;4961473;28;20575;-55
2022/11/09 09:59:49;;;;;;;5.28;1.63;;;12.80;99.90;;;;;;4960158;28;20046;-54
2022/11/09 10:02:22;;;;;;;2.80;2.28;;;12.90;99.90;;;;;;4963016;28;20584;-54
2022/11/09 10:04:50;;;;;;;5.15;2.00;;;13.00;99.90;;;;;;4962037;28;20045;-55
2022/11/09 10:07:31;;;;;;;2.53;1.90;;;13.10;99.90;;;;;;4962715;28;20379;-56
2022/11/09 10:10:38;;;;;;;3.50;2.03;;;13.20;99.90;;;;;;4963535;28;20113;-54
2022/11/09 10:13:24;;;;;;;4.07;2.10;;;13.30;99.90;;;;;;4961335;28;20046;-56
2022/11/09 10:16:27;;;;;;;3.85;1.67;;;13.40;99.90;;;;;;4962075;28;20046;-58
2022/11/09 10:19:15;;;;;;;3.90;1.60;;;13.50;99.90;;;;;;4958658;28;20057;-55
2022/11/09 10:22:06;;;;;;;2.40;1.73;;;13.50;99.90;;;;;;4960637;28;20046;-55
2022/11/09 10:24:53;;;;;;;3.85;1.98;;;13.60;99.90;;;;;;4958529;28;20093;-59
2022/11/09 10:27:48;;;;;;;3.30;1.48;;;13.60;99.90;;;;;;4962423;28;20065;-56
2022/11/09 10:30:20;;;;;;;3.78;1.85;;;13.60;99.90;;;;;;4960597;28;20046;-56
2022/11/09 10:32:54;;;;;;;2.30;1.63;;;13.60;99.90;;;;;;4977075;28;20165;-55
2022/11/09 10:35:26;;;;;;;1.98;1.63;;;13.60;99.90;;;;;;4961515;28;20052;-57
2022/11/09 10:37:53;;;;;;;1.65;1.42;;;13.60;99.90;;;;;;4962445;28;20602;-55
2022/11/09 10:40:32;;;;;;;5.72;1.90;;;13.70;99.90;;;;;;4961156;28;20052;-57
2022/11/09 10:43:18;;;;;;;1.48;1.13;;;13.70;99.90;;;;;;4963034;28;20070;-57
2022/11/09 10:46:07;;;;;;;1.48;1.23;;;13.80;99.90;;;;;;4961145;28;20181;-56
2022/11/09 10:48:54;;;;;;;3.45;1.48;;;13.80;99.90;;;;;;4960779;28;20054;-58
2022/11/09 10:51:42;;;;;;;2.50;1.33;;;13.90;99.90;;;;;;4961666;28;20061;-57
2022/11/09 10:54:32;;;;;;;3.08;1.98;;;14.00;99.90;;;;;;4959214;28;20650;-54
2022/11/09 10:57:24;;;;;;;2.63;1.83;;;14.10;99.90;;;;;;4962037;28;20057;-57
2022/11/09 11:00:15;;;;;;;3.05;1.55;;;14.20;99.90;;;;;;4961270;28;20615;-57
2022/11/09 11:03:16;;;;;;;3.42;1.55;;;14.40;99.90;;;;;;4962738;28;20615;-56
2022/11/09 11:06:06;;;;;;;2.92;1.55;;;14.50;99.90;;;;;;4973940;28;20072;-56
2022/11/09 11:09:15;;;;;;;5.07;1.60;;;14.60;99.90;;;;;;4961505;28;20480;-56
2022/11/09 11:12:15;;;;;;;5.25;1.73;;;14.70;99.90;;;;;;4959946;28;20264;-57
2022/11/09 11:15:00;;;;;;;3.53;1.80;;;14.70;99.90;;;;;;4961452;28;20591;-56
2022/11/09 11:17:45;;;;;;;2.55;1.77;;;14.70;99.90;;;;;;4961822;28;20334;-56
2022/11/09 11:20:36;;;;;;;2.25;1.52;;;14.70;99.90;;;;;;4960156;28;20078;-57
2022/11/09 11:23:24;;;;;;;2.88;1.40;;;14.70;99.90;;;;;;4963424;28;20449;-56
2022/11/09 11:26:45;;;;;;;6.20;1.27;;;14.70;99.90;;;;;;4957336;28;20174;-56
2022/11/09 11:29:36;;;;;;;2.33;1.23;;;14.70;99.90;;;;;;4961529;28;20547;-56
2022/11/09 11:32:22;;;;;;;3.17;1.23;;;14.70;99.90;;;;;;4958521;28;20144;-56
2022/11/09 11:35:16;;;;;;;3.35;1.73;;;14.70;99.90;;;;;;4960550;28;20354;-57
2022/11/09 11:38:30;;;;;;;3.45;1.60;;;14.70;99.90;;;;;;4958398;28;20429;-57
2022/11/09 11:41:33;;;;;;;6.57;1.60;;;14.70;99.90;;;;;;4959485;28;20432;-56
2022/11/09 11:44:47;;;;;;;2.08;1.33;;;14.70;99.90;;;;;;4959712;28;20263;-56
2022/11/09 11:48:02;;;;;;;3.80;1.88;;;14.70;99.90;;;;;;4960196;28;20065;-55
2022/11/09 11:51:01;;;;;;;4.47;2.40;;;14.70;99.90;;;;;;4959815;28;20054;-55
2022/11/09 11:53:55;;;;;;;7.25;2.35;;;14.80;99.90;;;;;;4964861;28;20049;-54
2022/11/09 11:57:06;;;;;;;5.15;2.42;;;14.80;99.90;;;;;;4961382;28;20416;-53
2022/11/09 12:00:17;;;;;;;2.30;1.70;;;14.90;99.90;;;;;;4960140;28;20409;-53
2022/11/09 12:03:41;;;;;;;4.63;2.40;;;14.90;99.90;;;;;;4959014;28;20476;-54
2022/11/09 12:06:47;;;;;;;3.92;2.53;;;14.90;99.90;;;;;;4901823;29;20652;-55
2022/11/09 12:10:07;;;;;;;3.35;1.95;;;15.00;99.90;;;;;;4965813;28;20053;-56
2022/11/09 12:12:59;;;;;;;3.80;1.90;;;14.90;99.90;;;;;;4965753;28;20597;-56
2022/11/09 12:15:56;;;;;;;2.97;2.33;;;14.90;99.90;;;;;;4963406;28;20412;-55
2022/11/09 12:19:08;;;;;;;3.72;2.30;;;14.80;99.90;;;;;;4963862;28;20245;-54
2022/11/09 12:22:16;;;;;;;2.78;1.75;;;14.80;99.90;;;;;;4961420;28;20293;-54
2022/11/09 12:25:20;;;;;;;5.13;3.03;;;14.80;99.90;;;;;;4963039;28;20057;-53
2022/11/09 12:28:12;;;;;;;7.57;3.25;;;14.70;99.90;;;;;;4962721;28;20054;-56
2022/11/09 12:31:10;;;;;;;5.65;3.65;;;14.70;99.90;;;;;;4963239;28;20233;-54
2022/11/09 12:34:06;;;;;;;12.23;4.95;;;14.60;99.90;;;;;;4962187;28;20049;-54
2022/11/09 12:36:58;;;;;;;8.80;5.03;;;14.60;99.90;;;;;;4966724;28;20145;-55
2022/11/09 12:39:59;;;;;;;9.88;4.32;;;14.50;99.90;;;;;;4964051;28;20096;-53
2022/11/09 12:42:58;;;;;;;8.07;5.30;;;14.40;99.90;;;;;;4963314;28;20140;-54
2022/11/09 12:45:43;;;;;;;9.02;5.20;;;14.40;99.90;;;;;;4960833;28;20271;-58
2022/11/09 12:48:32;;;;;;;9.13;6.38;;;14.40;99.90;;;;;;4964141;28;20045;-55
2022/11/09 12:51:19;;;;;;;9.85;6.95;;;14.30;99.90;;;;;;4966843;28;20173;-56
2022/11/09 12:54:11;;;;;;;7.65;5.57;;;14.30;99.90;;;;;;4961626;28;20588;-53
2022/11/09 12:57:09;;;;;;;10.68;5.60;;;14.30;99.90;;;;;;4962829;28;20057;-57
2022/11/09 12:59:56;;;;;;;11.30;5.85;;;14.20;99.90;;;;;;4965878;28;20160;-56
2022/11/09 13:02:52;;;;;;;11.45;6.32;;;14.20;99.90;;;;;;4963588;28;20057;-55
2022/11/09 13:05:39;;;;;;;8.48;5.90;;;14.20;99.90;;;;;;4963748;28;20061;-55
2022/11/09 13:08:29;;;;;;;8.75;5.88;;;14.10;99.90;;;;;;4962289;28;20172;-54
2022/11/09 13:11:36;;;;;;;13.80;7.57;;;14.10;99.90;;;;;;4965015;28;20425;-54
2022/11/09 13:14:22;;;;;;;8.65;5.55;;;14.10;99.90;;;;;;4965351;28;20124;-55
2022/11/09 13:17:23;;;;;;;9.35;6.82;;;14.00;99.90;;;;;;4963783;28;20176;-54
2022/11/09 13:20:33;;;;;;;9.38;6.22;;;13.90;99.90;;;;;;4961478;28;20056;-56
2022/11/09 13:23:39;;;;;;;9.75;7.05;;;13.90;99.90;;;;;;4962301;28;20276;-56
2022/11/09 13:26:47;;;;;;;15.50;7.88;;;13.90;99.90;;;;;;4961840;28;20119;-55
2022/11/09 13:29:39;;;;;;;11.90;7.63;;;13.70;99.90;;;;;;4962357;28;20066;-56
2022/11/09 13:32:32;;;;;;;16.95;8.75;;;13.70;99.90;;;;;;4963550;28;20061;-55
2022/11/09 13:35:39;;;;;;;9.77;7.00;;;13.60;99.90;;;;;;4960993;28;20133;-58
2022/11/09 13:38:28;;;;;;;11.23;6.45;;;13.60;99.90;;;;;;4958882;28;20058;-56
2022/11/09 13:41:29;;;;;;;17.85;10.57;;;13.50;99.90;;;;;;4958353;28;20058;-57